sensor_id;sensor_type;location;lat;lon;timestamp;P1;durP1;ratioP1;P2;durP2;ratioP2
26908;SDS011;14477;51.038;4.588;2022-10-17T00:01:32;4.60;;;2.50;;
26908;SDS011;14477;51.038;4.588;2022-10-17T00:03:57;3.28;;;2.30;;
26908;SDS011;14477;51.038;4.588;2022-10-17T00:06:23;3.77;;;2.50;;
26908;SDS011;14477;51.038;4.588;2022-10-17T00:08:49;3.88;;;2.50;;
26908;SDS011;14477;51.038;4.588;2022-10-17T00:11:15;4.30;;;2.50;;
26908;SDS011;14477;51.038;4.588;2022-10-17T00:13:44;3.20;;;2.17;;
26908;SDS011;14477;51.038;4.588;2022-10-17T00:16:10;4.43;;;2.47;;
26908;SDS011;14477;51.038;4.588;2022-10-17T00:18:36;3.77;;;2.43;;
26908;SDS011;14477;51.038;4.588;2022-10-17T00:21:01;3.70;;;2.22;;
26908;SDS011;14477;51.038;4.588;2022-10-17T00:23:27;3.30;;;2.50;;
26908;SDS011;14477;51.038;4.588;2022-10-17T00:26:00;2.83;;;2.00;;
26908;SDS011;14477;51.038;4.588;2022-10-17T00:28:28;3.28;;;2.13;;
26908;SDS011;14477;51.038;4.588;2022-10-17T00:30:55;5.15;;;2.38;;
26908;SDS011;14477;51.038;4.588;2022-10-17T00:33:25;3.17;;;2.25;;
26908;SDS011;14477;51.038;4.588;2022-10-17T00:36:00;3.83;;;2.33;;
26908;SDS011;14477;51.038;4.588;2022-10-17T00:38:39;3.40;;;2.30;;
26908;SDS011;14477;51.038;4.588;2022-10-17T00:41:06;3.85;;;2.58;;
26908;SDS011;14477;51.038;4.588;2022-10-17T00:46:32;3.50;;;2.30;;
26908;SDS011;14477;51.038;4.588;2022-10-17T00:49:00;3.70;;;2.37;;
26908;SDS011;14477;51.038;4.588;2022-10-17T00:51:33;3.63;;;2.38;;
26908;SDS011;14477;51.038;4.588;2022-10-17T00:54:10;3.45;;;2.42;;
26908;SDS011;14477;51.038;4.588;2022-10-17T00:56:40;4.10;;;2.60;;
26908;SDS011;14477;51.038;4.588;2022-10-17T00:59:06;3.78;;;2.47;;
26908;SDS011;14477;51.038;4.588;2022-10-17T01:01:34;5.73;;;2.60;;
26908;SDS011;14477;51.038;4.588;2022-10-17T01:04:00;3.00;;;2.28;;
26908;SDS011;14477;51.038;4.588;2022-10-17T01:06:26;4.57;;;2.60;;
26908;SDS011;14477;51.038;4.588;2022-10-17T01:08:52;4.63;;;2.60;;
26908;SDS011;14477;51.038;4.588;2022-10-17T01:11:25;3.35;;;2.35;;
26908;SDS011;14477;51.038;4.588;2022-10-17T01:14:20;5.20;;;2.50;;
26908;SDS011;14477;51.038;4.588;2022-10-17T01:17:07;4.37;;;2.27;;
26908;SDS011;14477;51.038;4.588;2022-10-17T01:30:44;3.97;;;2.63;;
26908;SDS011;14477;51.038;4.588;2022-10-17T01:33:29;3.97;;;2.38;;
26908;SDS011;14477;51.038;4.588;2022-10-17T01:36:13;3.50;;;2.35;;
26908;SDS011;14477;51.038;4.588;2022-10-17T01:38:59;3.72;;;2.40;;
26908;SDS011;14477;51.038;4.588;2022-10-17T01:41:42;4.85;;;2.30;;
26908;SDS011;14477;51.038;4.588;2022-10-17T01:47:02;4.13;;;2.40;;
26908;SDS011;14477;51.038;4.588;2022-10-17T01:49:35;3.88;;;2.60;;
26908;SDS011;14477;51.038;4.588;2022-10-17T01:52:05;4.70;;;2.35;;
26908;SDS011;14477;51.038;4.588;2022-10-17T01:54:37;4.78;;;2.45;;
26908;SDS011;14477;51.038;4.588;2022-10-17T01:57:16;4.87;;;2.37;;
26908;SDS011;14477;51.038;4.588;2022-10-17T01:59:57;4.05;;;2.38;;
26908;SDS011;14477;51.038;4.588;2022-10-17T02:02:26;3.10;;;2.30;;
26908;SDS011;14477;51.038;4.588;2022-10-17T02:04:52;4.65;;;2.50;;
26908;SDS011;14477;51.038;4.588;2022-10-17T02:07:20;5.05;;;2.40;;
26908;SDS011;14477;51.038;4.588;2022-10-17T02:09:46;3.93;;;2.30;;
26908;SDS011;14477;51.038;4.588;2022-10-17T02:20:43;4.18;;;2.40;;
26908;SDS011;14477;51.038;4.588;2022-10-17T02:28:18;4.05;;;2.50;;
26908;SDS011;14477;51.038;4.588;2022-10-17T02:31:01;4.28;;;2.40;;
26908;SDS011;14477;51.038;4.588;2022-10-17T02:33:39;4.65;;;2.55;;
26908;SDS011;14477;51.038;4.588;2022-10-17T02:36:10;3.33;;;2.40;;
26908;SDS011;14477;51.038;4.588;2022-10-17T02:38:42;4.07;;;2.60;;
26908;SDS011;14477;51.038;4.588;2022-10-17T02:41:10;3.60;;;2.17;;
26908;SDS011;14477;51.038;4.588;2022-10-17T02:43:40;2.95;;;2.13;;
26908;SDS011;14477;51.038;4.588;2022-10-17T02:46:09;4.35;;;2.38;;
26908;SDS011;14477;51.038;4.588;2022-10-17T02:48:46;3.17;;;2.33;;
26908;SDS011;14477;51.038;4.588;2022-10-17T02:56:27;3.45;;;2.38;;
26908;SDS011;14477;51.038;4.588;2022-10-17T02:58:58;4.45;;;2.63;;
26908;SDS011;14477;51.038;4.588;2022-10-17T03:01:25;2.90;;;2.10;;
26908;SDS011;14477;51.038;4.588;2022-10-17T03:04:09;3.63;;;2.30;;
26908;SDS011;14477;51.038;4.588;2022-10-17T03:06:37;4.00;;;2.65;;
26908;SDS011;14477;51.038;4.588;2022-10-17T03:09:05;4.55;;;2.40;;
26908;SDS011;14477;51.038;4.588;2022-10-17T03:11:31;3.72;;;2.65;;
26908;SDS011;14477;51.038;4.588;2022-10-17T03:13:57;4.60;;;2.50;;
26908;SDS011;14477;51.038;4.588;2022-10-17T03:16:22;3.97;;;2.70;;
26908;SDS011;14477;51.038;4.588;2022-10-17T03:18:49;3.83;;;2.50;;
26908;SDS011;14477;51.038;4.588;2022-10-17T03:21:14;4.93;;;2.55;;
26908;SDS011;14477;51.038;4.588;2022-10-17T03:23:40;5.70;;;2.60;;
26908;SDS011;14477;51.038;4.588;2022-10-17T03:26:06;3.60;;;2.40;;
26908;SDS011;14477;51.038;4.588;2022-10-17T03:28:32;4.75;;;2.60;;
26908;SDS011;14477;51.038;4.588;2022-10-17T03:30:58;4.77;;;2.60;;
26908;SDS011;14477;51.038;4.588;2022-10-17T03:33:23;4.95;;;2.83;;
26908;SDS011;14477;51.038;4.588;2022-10-17T03:35:49;4.10;;;2.90;;
26908;SDS011;14477;51.038;4.588;2022-10-17T03:38:15;3.97;;;2.67;;
26908;SDS011;14477;51.038;4.588;2022-10-17T03:40:42;4.10;;;2.55;;
26908;SDS011;14477;51.038;4.588;2022-10-17T03:43:09;5.95;;;2.70;;
26908;SDS011;14477;51.038;4.588;2022-10-17T03:45:35;3.50;;;2.58;;
26908;SDS011;14477;51.038;4.588;2022-10-17T03:48:01;5.23;;;2.67;;
26908;SDS011;14477;51.038;4.588;2022-10-17T03:50:27;4.80;;;2.50;;
26908;SDS011;14477;51.038;4.588;2022-10-17T03:52:52;5.13;;;2.57;;
26908;SDS011;14477;51.038;4.588;2022-10-17T03:55:18;3.58;;;2.67;;
26908;SDS011;14477;51.038;4.588;2022-10-17T03:57:44;4.73;;;2.63;;
26908;SDS011;14477;51.038;4.588;2022-10-17T04:00:09;4.57;;;2.50;;
26908;SDS011;14477;51.038;4.588;2022-10-17T04:02:35;4.10;;;2.38;;
26908;SDS011;14477;51.038;4.588;2022-10-17T04:05:01;4.68;;;2.65;;
26908;SDS011;14477;51.038;4.588;2022-10-17T04:07:27;4.27;;;2.70;;
26908;SDS011;14477;51.038;4.588;2022-10-17T04:09:52;3.37;;;2.50;;
26908;SDS011;14477;51.038;4.588;2022-10-17T04:12:18;3.58;;;2.30;;
26908;SDS011;14477;51.038;4.588;2022-10-17T04:14:43;3.27;;;2.30;;
26908;SDS011;14477;51.038;4.588;2022-10-17T04:17:09;3.85;;;2.00;;
26908;SDS011;14477;51.038;4.588;2022-10-17T04:19:34;3.60;;;2.43;;
26908;SDS011;14477;51.038;4.588;2022-10-17T04:22:00;5.45;;;2.67;;
26908;SDS011;14477;51.038;4.588;2022-10-17T04:24:28;3.90;;;2.80;;
26908;SDS011;14477;51.038;4.588;2022-10-17T04:26:53;4.88;;;2.50;;
26908;SDS011;14477;51.038;4.588;2022-10-17T04:29:19;3.40;;;2.30;;
26908;SDS011;14477;51.038;4.588;2022-10-17T04:31:45;3.67;;;2.55;;
26908;SDS011;14477;51.038;4.588;2022-10-17T04:34:11;6.60;;;2.50;;
26908;SDS011;14477;51.038;4.588;2022-10-17T04:36:38;3.70;;;2.47;;
26908;SDS011;14477;51.038;4.588;2022-10-17T04:39:04;3.50;;;2.53;;
26908;SDS011;14477;51.038;4.588;2022-10-17T04:41:30;3.30;;;2.40;;
26908;SDS011;14477;51.038;4.588;2022-10-17T04:43:56;4.60;;;2.40;;
26908;SDS011;14477;51.038;4.588;2022-10-17T04:46:21;3.90;;;2.57;;
26908;SDS011;14477;51.038;4.588;2022-10-17T04:48:47;4.30;;;2.90;;
26908;SDS011;14477;51.038;4.588;2022-10-17T04:51:14;3.57;;;2.53;;
26908;SDS011;14477;51.038;4.588;2022-10-17T04:53:42;4.30;;;2.90;;
26908;SDS011;14477;51.038;4.588;2022-10-17T04:56:09;5.15;;;2.78;;
26908;SDS011;14477;51.038;4.588;2022-10-17T04:58:39;3.58;;;2.40;;
26908;SDS011;14477;51.038;4.588;2022-10-17T05:01:06;4.18;;;2.75;;
26908;SDS011;14477;51.038;4.588;2022-10-17T05:03:33;4.20;;;2.80;;
26908;SDS011;14477;51.038;4.588;2022-10-17T05:06:07;3.50;;;2.50;;
26908;SDS011;14477;51.038;4.588;2022-10-17T05:08:33;4.30;;;2.42;;
26908;SDS011;14477;51.038;4.588;2022-10-17T05:10:59;3.63;;;2.60;;
26908;SDS011;14477;51.038;4.588;2022-10-17T05:13:25;3.60;;;2.33;;
26908;SDS011;14477;51.038;4.588;2022-10-17T05:15:51;3.50;;;2.33;;
26908;SDS011;14477;51.038;4.588;2022-10-17T05:18:17;4.80;;;2.87;;
26908;SDS011;14477;51.038;4.588;2022-10-17T05:20:43;3.53;;;2.55;;
26908;SDS011;14477;51.038;4.588;2022-10-17T05:23:08;6.67;;;2.57;;
26908;SDS011;14477;51.038;4.588;2022-10-17T05:25:34;3.72;;;2.33;;
26908;SDS011;14477;51.038;4.588;2022-10-17T05:28:00;3.30;;;2.50;;
26908;SDS011;14477;51.038;4.588;2022-10-17T05:30:25;3.25;;;2.33;;
26908;SDS011;14477;51.038;4.588;2022-10-17T05:32:52;3.73;;;2.40;;
26908;SDS011;14477;51.038;4.588;2022-10-17T05:35:18;3.50;;;2.40;;
26908;SDS011;14477;51.038;4.588;2022-10-17T05:37:45;3.40;;;2.20;;
26908;SDS011;14477;51.038;4.588;2022-10-17T05:40:10;3.10;;;2.27;;
26908;SDS011;14477;51.038;4.588;2022-10-17T05:42:36;3.08;;;2.30;;
26908;SDS011;14477;51.038;4.588;2022-10-17T05:45:02;3.53;;;2.47;;
26908;SDS011;14477;51.038;4.588;2022-10-17T05:47:28;5.05;;;2.40;;
26908;SDS011;14477;51.038;4.588;2022-10-17T05:49:53;3.90;;;2.30;;
26908;SDS011;14477;51.038;4.588;2022-10-17T05:52:19;3.60;;;2.50;;
26908;SDS011;14477;51.038;4.588;2022-10-17T05:54:45;3.27;;;2.50;;
26908;SDS011;14477;51.038;4.588;2022-10-17T05:57:10;4.47;;;2.50;;
26908;SDS011;14477;51.038;4.588;2022-10-17T05:59:36;3.37;;;2.30;;
26908;SDS011;14477;51.038;4.588;2022-10-17T06:02:01;3.50;;;2.35;;
26908;SDS011;14477;51.038;4.588;2022-10-17T06:04:27;2.90;;;2.20;;
26908;SDS011;14477;51.038;4.588;2022-10-17T06:06:53;5.37;;;2.60;;
26908;SDS011;14477;51.038;4.588;2022-10-17T06:09:20;4.82;;;2.42;;
26908;SDS011;14477;51.038;4.588;2022-10-17T06:11:46;5.00;;;2.28;;
26908;SDS011;14477;51.038;4.588;2022-10-17T06:14:12;4.22;;;2.53;;
26908;SDS011;14477;51.038;4.588;2022-10-17T06:16:38;3.40;;;2.30;;
26908;SDS011;14477;51.038;4.588;2022-10-17T06:19:03;4.35;;;2.60;;
26908;SDS011;14477;51.038;4.588;2022-10-17T06:21:29;3.87;;;2.30;;
26908;SDS011;14477;51.038;4.588;2022-10-17T06:23:58;3.50;;;2.35;;
26908;SDS011;14477;51.038;4.588;2022-10-17T06:26:24;3.47;;;2.17;;
26908;SDS011;14477;51.038;4.588;2022-10-17T06:28:49;3.78;;;2.45;;
26908;SDS011;14477;51.038;4.588;2022-10-17T06:31:15;3.93;;;2.30;;
26908;SDS011;14477;51.038;4.588;2022-10-17T06:33:41;3.25;;;2.40;;
26908;SDS011;14477;51.038;4.588;2022-10-17T06:36:09;4.35;;;2.40;;
26908;SDS011;14477;51.038;4.588;2022-10-17T06:38:36;3.70;;;2.30;;
26908;SDS011;14477;51.038;4.588;2022-10-17T06:41:06;4.25;;;2.70;;
26908;SDS011;14477;51.038;4.588;2022-10-17T06:43:38;3.67;;;2.50;;
26908;SDS011;14477;51.038;4.588;2022-10-17T06:46:05;3.28;;;2.40;;
26908;SDS011;14477;51.038;4.588;2022-10-17T06:48:31;3.47;;;2.40;;
26908;SDS011;14477;51.038;4.588;2022-10-17T06:50:57;4.43;;;2.50;;
26908;SDS011;14477;51.038;4.588;2022-10-17T06:53:25;4.28;;;2.15;;
26908;SDS011;14477;51.038;4.588;2022-10-17T06:55:52;5.63;;;2.38;;
26908;SDS011;14477;51.038;4.588;2022-10-17T06:58:19;5.50;;;2.45;;
26908;SDS011;14477;51.038;4.588;2022-10-17T07:00:45;4.40;;;2.80;;
26908;SDS011;14477;51.038;4.588;2022-10-17T07:03:11;4.50;;;2.70;;
26908;SDS011;14477;51.038;4.588;2022-10-17T07:05:36;4.10;;;2.63;;
26908;SDS011;14477;51.038;4.588;2022-10-17T07:08:03;5.20;;;2.90;;
26908;SDS011;14477;51.038;4.588;2022-10-17T07:10:29;5.13;;;2.63;;
26908;SDS011;14477;51.038;4.588;2022-10-17T07:12:54;3.13;;;2.38;;
26908;SDS011;14477;51.038;4.588;2022-10-17T07:15:20;3.20;;;2.50;;
26908;SDS011;14477;51.038;4.588;2022-10-17T07:17:49;5.55;;;2.90;;
26908;SDS011;14477;51.038;4.588;2022-10-17T07:20:15;4.50;;;2.63;;
26908;SDS011;14477;51.038;4.588;2022-10-17T07:22:40;3.73;;;2.50;;
26908;SDS011;14477;51.038;4.588;2022-10-17T07:25:06;4.00;;;2.40;;
26908;SDS011;14477;51.038;4.588;2022-10-17T07:27:32;4.00;;;2.33;;
26908;SDS011;14477;51.038;4.588;2022-10-17T07:29:58;3.90;;;2.35;;
26908;SDS011;14477;51.038;4.588;2022-10-17T07:32:24;5.90;;;2.33;;
26908;SDS011;14477;51.038;4.588;2022-10-17T07:34:49;2.80;;;2.15;;
26908;SDS011;14477;51.038;4.588;2022-10-17T07:37:15;4.03;;;2.37;;
26908;SDS011;14477;51.038;4.588;2022-10-17T07:39:40;4.00;;;2.30;;
26908;SDS011;14477;51.038;4.588;2022-10-17T07:42:06;3.20;;;2.50;;
26908;SDS011;14477;51.038;4.588;2022-10-17T07:44:32;3.67;;;2.33;;
26908;SDS011;14477;51.038;4.588;2022-10-17T07:46:57;3.42;;;2.38;;
26908;SDS011;14477;51.038;4.588;2022-10-17T07:49:23;3.67;;;2.40;;
26908;SDS011;14477;51.038;4.588;2022-10-17T07:51:49;3.88;;;2.50;;
26908;SDS011;14477;51.038;4.588;2022-10-17T07:54:14;5.30;;;2.37;;
26908;SDS011;14477;51.038;4.588;2022-10-17T07:56:40;3.67;;;2.00;;
26908;SDS011;14477;51.038;4.588;2022-10-17T07:59:06;3.43;;;2.00;;
26908;SDS011;14477;51.038;4.588;2022-10-17T08:01:31;2.97;;;1.77;;
26908;SDS011;14477;51.038;4.588;2022-10-17T08:03:57;3.27;;;1.90;;
26908;SDS011;14477;51.038;4.588;2022-10-17T08:06:22;2.75;;;1.70;;
26908;SDS011;14477;51.038;4.588;2022-10-17T08:08:48;1.90;;;1.57;;
26908;SDS011;14477;51.038;4.588;2022-10-17T08:11:14;1.97;;;1.50;;
26908;SDS011;14477;51.038;4.588;2022-10-17T08:13:40;3.05;;;1.80;;
26908;SDS011;14477;51.038;4.588;2022-10-17T08:16:07;2.28;;;1.63;;
26908;SDS011;14477;51.038;4.588;2022-10-17T08:18:34;2.25;;;1.58;;
26908;SDS011;14477;51.038;4.588;2022-10-17T08:21:01;2.40;;;1.60;;
26908;SDS011;14477;51.038;4.588;2022-10-17T08:23:30;2.08;;;1.30;;
26908;SDS011;14477;51.038;4.588;2022-10-17T08:25:59;2.90;;;1.48;;
26908;SDS011;14477;51.038;4.588;2022-10-17T08:28:26;2.17;;;1.55;;
26908;SDS011;14477;51.038;4.588;2022-10-17T08:30:53;2.75;;;1.58;;
26908;SDS011;14477;51.038;4.588;2022-10-17T08:33:26;2.77;;;1.60;;
26908;SDS011;14477;51.038;4.588;2022-10-17T08:35:51;3.05;;;1.60;;
26908;SDS011;14477;51.038;4.588;2022-10-17T08:38:17;2.20;;;1.60;;
26908;SDS011;14477;51.038;4.588;2022-10-17T08:40:42;4.72;;;1.80;;
26908;SDS011;14477;51.038;4.588;2022-10-17T08:45:51;4.32;;;1.58;;
26908;SDS011;14477;51.038;4.588;2022-10-17T08:48:24;3.70;;;1.90;;
26908;SDS011;14477;51.038;4.588;2022-10-17T08:50:57;2.10;;;1.60;;
26908;SDS011;14477;51.038;4.588;2022-10-17T08:53:40;2.10;;;1.60;;
26908;SDS011;14477;51.038;4.588;2022-10-17T08:56:27;2.37;;;1.73;;
26908;SDS011;14477;51.038;4.588;2022-10-17T08:58:57;2.45;;;1.50;;
26908;SDS011;14477;51.038;4.588;2022-10-17T09:12:34;3.60;;;2.00;;
26908;SDS011;14477;51.038;4.588;2022-10-17T09:15:15;3.80;;;2.03;;
26908;SDS011;14477;51.038;4.588;2022-10-17T09:20:28;2.60;;;1.60;;
26908;SDS011;14477;51.038;4.588;2022-10-17T09:22:58;2.65;;;1.92;;
26908;SDS011;14477;51.038;4.588;2022-10-17T09:25:27;3.65;;;2.08;;
26908;SDS011;14477;51.038;4.588;2022-10-17T09:28:09;3.13;;;2.05;;
26908;SDS011;14477;51.038;4.588;2022-10-17T09:30:46;4.38;;;2.28;;
26908;SDS011;14477;51.038;4.588;2022-10-17T09:33:19;3.60;;;2.23;;
26908;SDS011;14477;51.038;4.588;2022-10-17T09:35:57;4.72;;;2.45;;
26908;SDS011;14477;51.038;4.588;2022-10-17T09:38:25;3.85;;;2.40;;
26908;SDS011;14477;51.038;4.588;2022-10-17T09:40:59;3.33;;;2.20;;
26908;SDS011;14477;51.038;4.588;2022-10-17T09:43:26;3.28;;;2.15;;
26908;SDS011;14477;51.038;4.588;2022-10-17T09:48:25;3.30;;;2.20;;
26908;SDS011;14477;51.038;4.588;2022-10-17T09:51:14;3.85;;;2.10;;
26908;SDS011;14477;51.038;4.588;2022-10-17T09:53:45;3.75;;;2.33;;
26908;SDS011;14477;51.038;4.588;2022-10-17T09:56:16;3.63;;;2.30;;
26908;SDS011;14477;51.038;4.588;2022-10-17T09:58:44;4.47;;;2.40;;
26908;SDS011;14477;51.038;4.588;2022-10-17T10:01:28;3.72;;;2.53;;
26908;SDS011;14477;51.038;4.588;2022-10-17T10:04:11;3.97;;;2.65;;
26908;SDS011;14477;51.038;4.588;2022-10-17T10:06:39;4.75;;;2.83;;
26908;SDS011;14477;51.038;4.588;2022-10-17T10:09:05;3.78;;;2.58;;
26908;SDS011;14477;51.038;4.588;2022-10-17T10:11:55;3.57;;;2.60;;
26908;SDS011;14477;51.038;4.588;2022-10-17T10:14:33;3.53;;;2.58;;
26908;SDS011;14477;51.038;4.588;2022-10-17T10:17:01;5.05;;;2.85;;
26908;SDS011;14477;51.038;4.588;2022-10-17T10:19:32;4.65;;;3.05;;
26908;SDS011;14477;51.038;4.588;2022-10-17T10:22:00;4.68;;;3.10;;
26908;SDS011;14477;51.038;4.588;2022-10-17T10:27:41;5.68;;;2.72;;
26908;SDS011;14477;51.038;4.588;2022-10-17T10:30:19;5.07;;;2.95;;
26908;SDS011;14477;51.038;4.588;2022-10-17T10:32:49;5.10;;;3.00;;
26908;SDS011;14477;51.038;4.588;2022-10-17T10:35:22;5.72;;;3.03;;
26908;SDS011;14477;51.038;4.588;2022-10-17T10:37:56;4.60;;;2.80;;
26908;SDS011;14477;51.038;4.588;2022-10-17T10:40:37;5.18;;;3.10;;
26908;SDS011;14477;51.038;4.588;2022-10-17T10:43:18;5.25;;;3.05;;
26908;SDS011;14477;51.038;4.588;2022-10-17T10:46:04;3.92;;;3.10;;
26908;SDS011;14477;51.038;4.588;2022-10-17T10:48:48;5.60;;;2.92;;
26908;SDS011;14477;51.038;4.588;2022-10-17T10:51:17;4.03;;;2.83;;
26908;SDS011;14477;51.038;4.588;2022-10-17T10:56:54;4.38;;;2.78;;
26908;SDS011;14477;51.038;4.588;2022-10-17T10:59:30;5.82;;;3.05;;
26908;SDS011;14477;51.038;4.588;2022-10-17T11:02:07;5.18;;;3.00;;
26908;SDS011;14477;51.038;4.588;2022-10-17T11:07:41;3.80;;;2.60;;
26908;SDS011;14477;51.038;4.588;2022-10-17T11:10:22;4.32;;;2.60;;
26908;SDS011;14477;51.038;4.588;2022-10-17T11:15:53;6.32;;;3.63;;
26908;SDS011;14477;51.038;4.588;2022-10-17T11:23:45;4.87;;;3.33;;
26908;SDS011;14477;51.038;4.588;2022-10-17T11:26:18;4.97;;;3.10;;
26908;SDS011;14477;51.038;4.588;2022-10-17T11:28:54;6.38;;;3.67;;
26908;SDS011;14477;51.038;4.588;2022-10-17T11:31:22;4.75;;;3.30;;
26908;SDS011;14477;51.038;4.588;2022-10-17T11:33:53;5.00;;;3.50;;
26908;SDS011;14477;51.038;4.588;2022-10-17T11:36:26;4.93;;;3.45;;
26908;SDS011;14477;51.038;4.588;2022-10-17T11:39:05;5.30;;;3.60;;
26908;SDS011;14477;51.038;4.588;2022-10-17T11:41:40;6.88;;;3.45;;
26908;SDS011;14477;51.038;4.588;2022-10-17T11:44:34;5.43;;;3.33;;
26908;SDS011;14477;51.038;4.588;2022-10-17T11:47:49;5.15;;;3.25;;
26908;SDS011;14477;51.038;4.588;2022-10-17T11:49:49;4.15;;;2.92;;
26908;SDS011;14477;51.038;4.588;2022-10-17T11:52:38;4.60;;;3.07;;
26908;SDS011;14477;51.038;4.588;2022-10-17T11:55:22;6.10;;;3.20;;
26908;SDS011;14477;51.038;4.588;2022-10-17T12:06:10;5.68;;;3.28;;
26908;SDS011;14477;51.038;4.588;2022-10-17T12:11:41;4.28;;;3.00;;
26908;SDS011;14477;51.038;4.588;2022-10-17T12:15:13;3.63;;;2.93;;
26908;SDS011;14477;51.038;4.588;2022-10-17T12:17:21;4.75;;;3.47;;
26908;SDS011;14477;51.038;4.588;2022-10-17T12:21:01;4.57;;;3.25;;
26908;SDS011;14477;51.038;4.588;2022-10-17T12:25:30;5.38;;;3.30;;
26908;SDS011;14477;51.038;4.588;2022-10-17T12:30:37;5.22;;;3.40;;
26908;SDS011;14477;51.038;4.588;2022-10-17T12:33:16;4.32;;;2.92;;
26908;SDS011;14477;51.038;4.588;2022-10-17T12:35:51;5.05;;;3.03;;
26908;SDS011;14477;51.038;4.588;2022-10-17T12:46:48;5.13;;;3.10;;
26908;SDS011;14477;51.038;4.588;2022-10-17T12:52:15;4.82;;;3.00;;
26908;SDS011;14477;51.038;4.588;2022-10-17T12:54:45;5.80;;;3.23;;
26908;SDS011;14477;51.038;4.588;2022-10-17T13:02:48;4.72;;;3.30;;
26908;SDS011;14477;51.038;4.588;2022-10-17T13:05:26;4.68;;;3.25;;
26908;SDS011;14477;51.038;4.588;2022-10-17T13:07:56;4.80;;;2.97;;
26908;SDS011;14477;51.038;4.588;2022-10-17T13:10:26;4.50;;;3.03;;
26908;SDS011;14477;51.038;4.588;2022-10-17T13:13:03;4.78;;;3.28;;
26908;SDS011;14477;51.038;4.588;2022-10-17T13:15:32;4.53;;;3.00;;
26908;SDS011;14477;51.038;4.588;2022-10-17T13:17:59;4.60;;;3.17;;
26908;SDS011;14477;51.038;4.588;2022-10-17T13:20:26;5.03;;;3.37;;
26908;SDS011;14477;51.038;4.588;2022-10-17T13:22:53;6.15;;;3.40;;
26908;SDS011;14477;51.038;4.588;2022-10-17T13:25:20;4.72;;;3.20;;
26908;SDS011;14477;51.038;4.588;2022-10-17T13:27:47;4.20;;;3.08;;
26908;SDS011;14477;51.038;4.588;2022-10-17T13:30:27;4.38;;;3.20;;
26908;SDS011;14477;51.038;4.588;2022-10-17T13:32:55;5.80;;;3.20;;
26908;SDS011;14477;51.038;4.588;2022-10-17T13:35:27;4.22;;;3.30;;
26908;SDS011;14477;51.038;4.588;2022-10-17T13:37:55;3.75;;;2.92;;
26908;SDS011;14477;51.038;4.588;2022-10-17T13:40:24;4.00;;;3.00;;
26908;SDS011;14477;51.038;4.588;2022-10-17T13:42:52;4.38;;;3.42;;
26908;SDS011;14477;51.038;4.588;2022-10-17T13:45:27;4.95;;;2.90;;
26908;SDS011;14477;51.038;4.588;2022-10-17T13:47:55;4.10;;;3.00;;
26908;SDS011;14477;51.038;4.588;2022-10-17T13:50:26;4.85;;;2.88;;
26908;SDS011;14477;51.038;4.588;2022-10-17T13:53:07;5.37;;;2.80;;
26908;SDS011;14477;51.038;4.588;2022-10-17T13:58:22;3.63;;;2.67;;
26908;SDS011;14477;51.038;4.588;2022-10-17T14:00:48;4.15;;;2.88;;
26908;SDS011;14477;51.038;4.588;2022-10-17T14:03:16;4.82;;;3.10;;
26908;SDS011;14477;51.038;4.588;2022-10-17T14:08:35;3.70;;;2.58;;
26908;SDS011;14477;51.038;4.588;2022-10-17T14:11:11;3.75;;;2.45;;
26908;SDS011;14477;51.038;4.588;2022-10-17T14:13:39;5.03;;;2.70;;
26908;SDS011;14477;51.038;4.588;2022-10-17T14:16:05;4.53;;;2.58;;
26908;SDS011;14477;51.038;4.588;2022-10-17T14:18:33;4.13;;;2.63;;
26908;SDS011;14477;51.038;4.588;2022-10-17T14:21:00;4.15;;;2.58;;
26908;SDS011;14477;51.038;4.588;2022-10-17T14:23:31;4.63;;;2.40;;
26908;SDS011;14477;51.038;4.588;2022-10-17T14:28:33;3.08;;;2.28;;
26908;SDS011;14477;51.038;4.588;2022-10-17T14:33:49;3.78;;;2.30;;
26908;SDS011;14477;51.038;4.588;2022-10-17T14:36:17;3.53;;;2.40;;
26908;SDS011;14477;51.038;4.588;2022-10-17T14:38:45;3.58;;;2.10;;
26908;SDS011;14477;51.038;4.588;2022-10-17T14:41:21;3.33;;;2.33;;
26908;SDS011;14477;51.038;4.588;2022-10-17T14:43:53;3.22;;;2.20;;
26908;SDS011;14477;51.038;4.588;2022-10-17T14:46:27;3.13;;;2.30;;
26908;SDS011;14477;51.038;4.588;2022-10-17T14:48:54;3.45;;;2.17;;
26908;SDS011;14477;51.038;4.588;2022-10-17T14:51:27;4.10;;;2.37;;
26908;SDS011;14477;51.038;4.588;2022-10-17T14:54:00;4.00;;;2.50;;
26908;SDS011;14477;51.038;4.588;2022-10-17T14:56:50;3.58;;;2.20;;
26908;SDS011;14477;51.038;4.588;2022-10-17T14:59:17;3.60;;;2.17;;
26908;SDS011;14477;51.038;4.588;2022-10-17T15:01:49;3.20;;;2.27;;
26908;SDS011;14477;51.038;4.588;2022-10-17T15:04:16;3.65;;;2.38;;
26908;SDS011;14477;51.038;4.588;2022-10-17T15:06:41;3.38;;;1.98;;
26908;SDS011;14477;51.038;4.588;2022-10-17T15:09:08;3.35;;;1.88;;
26908;SDS011;14477;51.038;4.588;2022-10-17T15:11:37;2.77;;;1.90;;
26908;SDS011;14477;51.038;4.588;2022-10-17T15:14:03;2.95;;;2.00;;
26908;SDS011;14477;51.038;4.588;2022-10-17T15:16:32;3.83;;;2.10;;
26908;SDS011;14477;51.038;4.588;2022-10-17T15:18:58;4.37;;;2.20;;
26908;SDS011;14477;51.038;4.588;2022-10-17T15:21:25;4.03;;;2.08;;
26908;SDS011;14477;51.038;4.588;2022-10-17T15:23:52;3.33;;;2.03;;
26908;SDS011;14477;51.038;4.588;2022-10-17T15:26:22;2.70;;;2.00;;
26908;SDS011;14477;51.038;4.588;2022-10-17T15:28:50;3.80;;;2.10;;
26908;SDS011;14477;51.038;4.588;2022-10-17T15:31:17;3.33;;;2.13;;
26908;SDS011;14477;51.038;4.588;2022-10-17T15:33:45;2.75;;;1.92;;
26908;SDS011;14477;51.038;4.588;2022-10-17T15:36:22;3.80;;;2.17;;
26908;SDS011;14477;51.038;4.588;2022-10-17T15:38:56;3.88;;;2.20;;
26908;SDS011;14477;51.038;4.588;2022-10-17T15:41:24;3.97;;;1.93;;
26908;SDS011;14477;51.038;4.588;2022-10-17T15:43:50;2.63;;;2.10;;
26908;SDS011;14477;51.038;4.588;2022-10-17T15:46:18;3.30;;;1.90;;
26908;SDS011;14477;51.038;4.588;2022-10-17T15:48:46;3.13;;;1.97;;
26908;SDS011;14477;51.038;4.588;2022-10-17T15:51:12;4.10;;;2.53;;
26908;SDS011;14477;51.038;4.588;2022-10-17T15:53:38;4.25;;;2.78;;
26908;SDS011;14477;51.038;4.588;2022-10-17T15:56:04;3.60;;;2.80;;
26908;SDS011;14477;51.038;4.588;2022-10-17T15:58:33;5.57;;;3.20;;
26908;SDS011;14477;51.038;4.588;2022-10-17T16:01:10;5.30;;;3.40;;
26908;SDS011;14477;51.038;4.588;2022-10-17T16:03:45;4.60;;;3.20;;
26908;SDS011;14477;51.038;4.588;2022-10-17T16:06:12;6.78;;;3.45;;
26908;SDS011;14477;51.038;4.588;2022-10-17T16:08:38;5.60;;;3.50;;
26908;SDS011;14477;51.038;4.588;2022-10-17T16:11:04;7.55;;;3.38;;
26908;SDS011;14477;51.038;4.588;2022-10-17T16:13:30;7.50;;;4.17;;
26908;SDS011;14477;51.038;4.588;2022-10-17T16:15:56;8.27;;;4.10;;
26908;SDS011;14477;51.038;4.588;2022-10-17T16:18:21;7.25;;;4.35;;
26908;SDS011;14477;51.038;4.588;2022-10-17T16:20:47;8.40;;;4.93;;
26908;SDS011;14477;51.038;4.588;2022-10-17T16:23:12;9.40;;;5.43;;
26908;SDS011;14477;51.038;4.588;2022-10-17T16:25:39;9.90;;;5.53;;
26908;SDS011;14477;51.038;4.588;2022-10-17T16:28:05;9.50;;;5.28;;
26908;SDS011;14477;51.038;4.588;2022-10-17T16:30:32;9.60;;;5.40;;
26908;SDS011;14477;51.038;4.588;2022-10-17T16:33:06;10.20;;;5.53;;
26908;SDS011;14477;51.038;4.588;2022-10-17T16:35:32;10.20;;;5.53;;
26908;SDS011;14477;51.038;4.588;2022-10-17T16:37:57;8.90;;;5.53;;
26908;SDS011;14477;51.038;4.588;2022-10-17T16:40:23;9.47;;;5.30;;
26908;SDS011;14477;51.038;4.588;2022-10-17T16:42:49;11.75;;;6.55;;
26908;SDS011;14477;51.038;4.588;2022-10-17T16:45:21;7.40;;;4.73;;
26908;SDS011;14477;51.038;4.588;2022-10-17T16:47:47;6.47;;;4.57;;
26908;SDS011;14477;51.038;4.588;2022-10-17T16:50:14;6.30;;;4.03;;
26908;SDS011;14477;51.038;4.588;2022-10-17T16:52:40;5.32;;;4.00;;
26908;SDS011;14477;51.038;4.588;2022-10-17T16:55:06;6.27;;;3.90;;
26908;SDS011;14477;51.038;4.588;2022-10-17T16:57:32;4.60;;;3.05;;
26908;SDS011;14477;51.038;4.588;2022-10-17T16:59:57;6.07;;;3.37;;